Flight Briefing for CPX105

Departure Arrival
Huntsville International Airport (KHSV)
Click to view FAA NOTAMS
Miami International Airport (KMIA)
Click to view FAA NOTAMS
Departure Time Arrival Time
N/A N/A
Aircraft Distance
MD-11SF 629nm
Departure METAR Arrival METAR
KHSV 152043Z 18004KT 10SM -RA OVC018 16/14 A2981 RMK AO2 P0001 T01560139 $ KMIA 151953Z 14009KT 10SM SCT032 BKN250 26/19 A2993 RMK AO2 SLP136 T02560189
Suggested Route
RMG ATL YANTI Q89 PRMUS OMN HILEY7


View recent IFR Routes data
Notes



Charts and Procedures

Charts for KHSV
No chart available
Charts for KMIA
No chart available

Ventusky Weather